Shorkot Weather



Shorkot's Current Weather

Temprature 38.74o clear sky

clear sky

Rain: 0 %

Min Temprature38.74o
Max Temprature38.74o
Humidity15
Wind Speed0.88 m/h
Sun Rise05:24:39
Sun Set19:01:19
Current Time: 08-May-2021 15:28:27
Lat/Lon: 31.9099, 70.8774




Shorkot's Geo Location



Shorkot's Weather Forecast

Time Overall Temp Min Temp Max Temp Humidity Wind Speed Rain
08-May-2021 (Sat)
17:00:00 clear sky 38.540 38.540 38.980 15 0.76 m/h 0 %
20:00:00 few clouds 36.850 36.110 36.850 16 4.77 m/h 0 %
23:00:00 broken clouds 31.660 31.660 31.660 26 4.1 m/h 0 %
09-May-2021 (Sun)
02:00:00 broken clouds 30.340 30.340 30.340 29 0.3 m/h 0 %
05:00:00 scattered clouds 29.170 29.170 29.170 31 2.89 m/h 0 %
08:00:00 broken clouds 32.290 32.290 32.290 26 3.22 m/h 0 %
11:00:00 scattered clouds 37.020 37.020 37.020 18 2.99 m/h 0 %
14:00:00 clear sky 39.810 39.810 39.810 13 1.03 m/h 0 %
17:00:00 clear sky 40.480 40.480 40.480 12 2.64 m/h 0 %
20:00:00 broken clouds 35.920 35.920 35.920 17 6.14 m/h 0 %
23:00:00 broken clouds 31.310 31.310 31.310 27 7.45 m/h 0 %
10-May-2021 (Mon)
02:00:00 scattered clouds 29.320 29.320 29.320 32 4.35 m/h 0 %
05:00:00 broken clouds 27.890 27.890 27.890 38 3.62 m/h 0 %
08:00:00 overcast clouds 30.320 30.320 30.320 32 3.74 m/h 0 %
11:00:00 overcast clouds 35.360 35.360 35.360 21 2.98 m/h 0 %
14:00:00 overcast clouds 39.150 39.150 39.150 15 1.86 m/h 0 %
17:00:00 overcast clouds 40.510 40.510 40.510 11 1.33 m/h 0 %
20:00:00 scattered clouds 36.420 36.420 36.420 15 1.37 m/h 0 %
23:00:00 scattered clouds 34.280 34.280 34.280 18 1.4 m/h 0 %
11-May-2021 (Tue)
02:00:00 broken clouds 32.410 32.410 32.410 21 2.36 m/h 0 %
05:00:00 scattered clouds 30.150 30.150 30.150 25 2.73 m/h 0 %
08:00:00 clear sky 33.880 33.880 33.880 20 5.11 m/h 0 %
11:00:00 scattered clouds 38.990 38.990 38.990 14 3.09 m/h 0 %
14:00:00 broken clouds 41.600 41.600 41.600 11 1.45 m/h 0 %
17:00:00 broken clouds 37.640 37.640 37.640 13 7.84 m/h 0 %
20:00:00 overcast clouds 35.700 35.700 35.700 17 3.86 m/h 0 %
23:00:00 broken clouds 31.840 31.840 31.840 26 7.27 m/h 0 %
12-May-2021 (Wed)
02:00:00 broken clouds 30.040 30.040 30.040 32 5.3 m/h 0 %
05:00:00 broken clouds 27.350 27.350 27.350 40 5.89 m/h 0 %
08:00:00 scattered clouds 30.880 30.880 30.880 29 5.81 m/h 0 %
11:00:00 few clouds 34.890 34.890 34.890 23 5.28 m/h 0 %
14:00:00 clear sky 37.450 37.450 37.450 19 3.91 m/h 0 %
17:00:00 few clouds 34.280 34.280 34.280 25 10.46 m/h 0 %
20:00:00 light rain 26.950 26.950 26.950 51 7.44 m/h 78 %
23:00:00 few clouds 25.910 25.910 25.910 51 4.23 m/h 0 %
13-May-2021 (Thu)
02:00:00 broken clouds 25.530 25.530 25.530 53 2.07 m/h 0 %
05:00:00 broken clouds 24.570 24.570 24.570 56 3.42 m/h 0 %
08:00:00 light rain 27.170 27.170 27.170 45 2.97 m/h 46 %
11:00:00 light rain 31.710 31.710 31.710 32 3.18 m/h 23 %
14:00:00 clear sky 34.970 34.970 34.970 25 2.59 m/h 0 %

Famous Cities (60)